Terminal Aerodrome Forecast
Issued by NWS Wichita, KS

Home | Current Version | Previous Version | Graphics & Text | Print | Product List | Glossary On
Versions: 1 2 3 4 5 6 7 8 9 10 11 12 13 14 15 16 17
000
FTUS43 KICT 012300
TAFICT
TAF
KICT 012328Z 0200/0224 36007KT P6SM SCT080
     FM020100 17005KT P6SM FEW080
      TEMPO 0210/0213 4SM BR=

USA.gov is the U.S. government's official web portal to all federal, state and local government web resources and services.